sensor_id;sensor_type;location;lat;lon;timestamp;temperature;humidity
5675;DHT22;2860;54.284;10.158;2023-06-22T00:00:56;14.30;99.90
5675;DHT22;2860;54.284;10.158;2023-06-22T00:03:23;14.30;99.90
5675;DHT22;2860;54.284;10.158;2023-06-22T00:05:52;14.20;99.90
5675;DHT22;2860;54.284;10.158;2023-06-22T00:08:18;14.20;99.90
5675;DHT22;2860;54.284;10.158;2023-06-22T00:10:44;14.20;99.90
5675;DHT22;2860;54.284;10.158;2023-06-22T00:13:11;14.10;99.90
5675;DHT22;2860;54.284;10.158;2023-06-22T00:15:38;14.10;99.90
5675;DHT22;2860;54.284;10.158;2023-06-22T00:18:08;14.00;99.90
5675;DHT22;2860;54.284;10.158;2023-06-22T00:20:34;14.00;99.90
5675;DHT22;2860;54.284;10.158;2023-06-22T00:23:03;14.00;99.90
5675;DHT22;2860;54.284;10.158;2023-06-22T00:25:37;13.90;99.90
5675;DHT22;2860;54.284;10.158;2023-06-22T00:28:05;13.90;99.90
5675;DHT22;2860;54.284;10.158;2023-06-22T00:30:31;13.90;99.90
5675;DHT22;2860;54.284;10.158;2023-06-22T00:32:58;13.90;99.90
5675;DHT22;2860;54.284;10.158;2023-06-22T00:35:24;13.90;99.90
5675;DHT22;2860;54.284;10.158;2023-06-22T00:37:55;13.80;99.90
5675;DHT22;2860;54.284;10.158;2023-06-22T00:40:26;13.80;99.90
5675;DHT22;2860;54.284;10.158;2023-06-22T00:42:52;13.80;99.90
5675;DHT22;2860;54.284;10.158;2023-06-22T00:45:17;13.80;99.90
5675;DHT22;2860;54.284;10.158;2023-06-22T00:47:43;13.70;99.90
5675;DHT22;2860;54.284;10.158;2023-06-22T00:50:16;13.70;99.90
5675;DHT22;2860;54.284;10.158;2023-06-22T00:52:43;13.70;99.90
5675;DHT22;2860;54.284;10.158;2023-06-22T00:55:09;13.60;99.90
5675;DHT22;2860;54.284;10.158;2023-06-22T00:57:35;13.60;99.90
5675;DHT22;2860;54.284;10.158;2023-06-22T01:00:03;13.60;99.90
5675;DHT22;2860;54.284;10.158;2023-06-22T01:02:31;13.60;99.90
5675;DHT22;2860;54.284;10.158;2023-06-22T01:04:57;13.50;99.90
5675;DHT22;2860;54.284;10.158;2023-06-22T01:07:36;13.50;99.90
5675;DHT22;2860;54.284;10.158;2023-06-22T01:13:02;13.50;99.90
5675;DHT22;2860;54.284;10.158;2023-06-22T01:15:49;13.40;99.90
5675;DHT22;2860;54.284;10.158;2023-06-22T01:18:19;13.40;99.90
5675;DHT22;2860;54.284;10.158;2023-06-22T01:20:54;13.40;99.90
5675;DHT22;2860;54.284;10.158;2023-06-22T01:23:53;13.40;99.90
5675;DHT22;2860;54.284;10.158;2023-06-22T01:26:54;13.40;99.90
5675;DHT22;2860;54.284;10.158;2023-06-22T01:29:24;13.30;99.90
5675;DHT22;2860;54.284;10.158;2023-06-22T01:31:50;13.30;99.90
5675;DHT22;2860;54.284;10.158;2023-06-22T01:34:17;13.30;99.90
5675;DHT22;2860;54.284;10.158;2023-06-22T01:36:44;13.30;99.90
5675;DHT22;2860;54.284;10.158;2023-06-22T01:39:10;13.30;99.90
5675;DHT22;2860;54.284;10.158;2023-06-22T01:41:38;13.30;99.90
5675;DHT22;2860;54.284;10.158;2023-06-22T01:44:05;13.20;99.90
5675;DHT22;2860;54.284;10.158;2023-06-22T01:46:34;13.20;99.90
5675;DHT22;2860;54.284;10.158;2023-06-22T01:49:00;13.20;99.90
5675;DHT22;2860;54.284;10.158;2023-06-22T01:51:26;13.20;99.90
5675;DHT22;2860;54.284;10.158;2023-06-22T01:53:51;13.20;99.90
5675;DHT22;2860;54.284;10.158;2023-06-22T01:56:17;13.20;99.90
5675;DHT22;2860;54.284;10.158;2023-06-22T01:58:55;13.10;99.90
5675;DHT22;2860;54.284;10.158;2023-06-22T02:01:27;13.10;99.90
5675;DHT22;2860;54.284;10.158;2023-06-22T02:04:03;13.10;99.90
5675;DHT22;2860;54.284;10.158;2023-06-22T02:06:35;13.10;99.90
5675;DHT22;2860;54.284;10.158;2023-06-22T02:09:06;13.10;99.90
5675;DHT22;2860;54.284;10.158;2023-06-22T02:11:35;13.10;99.90
5675;DHT22;2860;54.284;10.158;2023-06-22T02:14:02;13.00;99.90
5675;DHT22;2860;54.284;10.158;2023-06-22T02:16:28;13.00;99.90
5675;DHT22;2860;54.284;10.158;2023-06-22T02:18:55;13.00;99.90
5675;DHT22;2860;54.284;10.158;2023-06-22T02:21:28;13.00;99.90
5675;DHT22;2860;54.284;10.158;2023-06-22T02:23:53;12.90;99.90
5675;DHT22;2860;54.284;10.158;2023-06-22T02:26:19;12.90;99.90
5675;DHT22;2860;54.284;10.158;2023-06-22T02:28:45;12.90;99.90
5675;DHT22;2860;54.284;10.158;2023-06-22T02:31:11;12.90;99.90
5675;DHT22;2860;54.284;10.158;2023-06-22T02:33:37;12.90;99.90
5675;DHT22;2860;54.284;10.158;2023-06-22T02:36:02;12.90;99.90
5675;DHT22;2860;54.284;10.158;2023-06-22T02:38:34;12.80;99.90
5675;DHT22;2860;54.284;10.158;2023-06-22T02:41:01;12.80;99.90
5675;DHT22;2860;54.284;10.158;2023-06-22T02:43:27;12.70;99.90
5675;DHT22;2860;54.284;10.158;2023-06-22T02:45:53;12.70;99.90
5675;DHT22;2860;54.284;10.158;2023-06-22T02:48:19;12.70;99.90
5675;DHT22;2860;54.284;10.158;2023-06-22T02:50:44;12.70;99.90
5675;DHT22;2860;54.284;10.158;2023-06-22T02:53:10;12.70;99.90
5675;DHT22;2860;54.284;10.158;2023-06-22T02:55:35;12.70;99.90
5675;DHT22;2860;54.284;10.158;2023-06-22T02:58:01;12.70;99.90
5675;DHT22;2860;54.284;10.158;2023-06-22T03:00:30;12.70;99.90
5675;DHT22;2860;54.284;10.158;2023-06-22T03:02:56;12.70;99.90
5675;DHT22;2860;54.284;10.158;2023-06-22T03:05:22;12.80;99.90
5675;DHT22;2860;54.284;10.158;2023-06-22T03:07:48;12.80;99.90
5675;DHT22;2860;54.284;10.158;2023-06-22T03:10:15;12.80;99.90
5675;DHT22;2860;54.284;10.158;2023-06-22T03:12:41;12.80;99.90
5675;DHT22;2860;54.284;10.158;2023-06-22T03:15:09;12.80;99.90
5675;DHT22;2860;54.284;10.158;2023-06-22T03:17:35;12.80;99.90
5675;DHT22;2860;54.284;10.158;2023-06-22T03:20:02;12.80;99.90
5675;DHT22;2860;54.284;10.158;2023-06-22T03:22:34;12.80;99.90
5675;DHT22;2860;54.284;10.158;2023-06-22T03:25:01;12.80;99.90
5675;DHT22;2860;54.284;10.158;2023-06-22T03:27:26;12.80;99.90
5675;DHT22;2860;54.284;10.158;2023-06-22T03:29:52;12.90;99.90
5675;DHT22;2860;54.284;10.158;2023-06-22T03:32:17;13.00;99.90
5675;DHT22;2860;54.284;10.158;2023-06-22T03:34:43;13.00;99.90
5675;DHT22;2860;54.284;10.158;2023-06-22T03:37:13;13.10;99.90
5675;DHT22;2860;54.284;10.158;2023-06-22T03:39:40;13.10;99.90
5675;DHT22;2860;54.284;10.158;2023-06-22T03:42:06;13.20;99.90
5675;DHT22;2860;54.284;10.158;2023-06-22T03:44:31;13.20;99.90
5675;DHT22;2860;54.284;10.158;2023-06-22T03:46:57;13.30;99.90
5675;DHT22;2860;54.284;10.158;2023-06-22T03:49:22;13.30;99.90
5675;DHT22;2860;54.284;10.158;2023-06-22T03:51:48;13.40;99.90
5675;DHT22;2860;54.284;10.158;2023-06-22T03:54:13;13.50;99.90
5675;DHT22;2860;54.284;10.158;2023-06-22T03:56:39;13.60;99.90
5675;DHT22;2860;54.284;10.158;2023-06-22T03:59:04;13.70;99.90
5675;DHT22;2860;54.284;10.158;2023-06-22T04:01:29;13.80;99.90
5675;DHT22;2860;54.284;10.158;2023-06-22T04:03:55;13.80;99.90
5675;DHT22;2860;54.284;10.158;2023-06-22T04:06:20;13.90;99.90
5675;DHT22;2860;54.284;10.158;2023-06-22T04:08:47;14.00;99.90
5675;DHT22;2860;54.284;10.158;2023-06-22T04:11:16;14.00;99.90
5675;DHT22;2860;54.284;10.158;2023-06-22T04:13:42;14.10;99.90
5675;DHT22;2860;54.284;10.158;2023-06-22T04:16:08;14.10;99.90
5675;DHT22;2860;54.284;10.158;2023-06-22T04:18:33;14.10;99.90
5675;DHT22;2860;54.284;10.158;2023-06-22T04:20:59;14.10;99.90
5675;DHT22;2860;54.284;10.158;2023-06-22T04:23:24;14.10;99.90
5675;DHT22;2860;54.284;10.158;2023-06-22T04:25:50;14.20;99.90
5675;DHT22;2860;54.284;10.158;2023-06-22T04:28:16;14.30;99.90
5675;DHT22;2860;54.284;10.158;2023-06-22T04:30:42;14.40;99.90
5675;DHT22;2860;54.284;10.158;2023-06-22T04:33:14;14.50;99.90
5675;DHT22;2860;54.284;10.158;2023-06-22T04:35:40;14.60;99.90
5675;DHT22;2860;54.284;10.158;2023-06-22T04:38:07;14.80;99.90
5675;DHT22;2860;54.284;10.158;2023-06-22T04:40:32;14.90;99.90
5675;DHT22;2860;54.284;10.158;2023-06-22T04:42:58;15.10;99.90
5675;DHT22;2860;54.284;10.158;2023-06-22T04:45:28;15.20;99.90
5675;DHT22;2860;54.284;10.158;2023-06-22T04:47:53;15.30;99.90
5675;DHT22;2860;54.284;10.158;2023-06-22T04:50:19;15.40;99.90
5675;DHT22;2860;54.284;10.158;2023-06-22T04:52:47;15.50;99.90
5675;DHT22;2860;54.284;10.158;2023-06-22T04:55:13;15.70;99.90
5675;DHT22;2860;54.284;10.158;2023-06-22T04:57:47;15.90;99.90
5675;DHT22;2860;54.284;10.158;2023-06-22T05:00:15;16.50;99.90
5675;DHT22;2860;54.284;10.158;2023-06-22T05:02:43;17.50;99.90
5675;DHT22;2860;54.284;10.158;2023-06-22T05:05:09;18.60;99.90
5675;DHT22;2860;54.284;10.158;2023-06-22T05:07:39;19.50;99.90
5675;DHT22;2860;54.284;10.158;2023-06-22T05:10:08;20.00;99.90
5675;DHT22;2860;54.284;10.158;2023-06-22T05:12:35;20.50;99.90
5675;DHT22;2860;54.284;10.158;2023-06-22T05:15:00;20.90;99.90
5675;DHT22;2860;54.284;10.158;2023-06-22T05:17:26;21.20;99.90
5675;DHT22;2860;54.284;10.158;2023-06-22T05:19:52;21.50;99.90
5675;DHT22;2860;54.284;10.158;2023-06-22T05:22:18;21.80;99.90
5675;DHT22;2860;54.284;10.158;2023-06-22T05:24:44;22.20;99.90
5675;DHT22;2860;54.284;10.158;2023-06-22T05:27:10;22.60;99.90
5675;DHT22;2860;54.284;10.158;2023-06-22T05:29:39;22.80;99.90
5675;DHT22;2860;54.284;10.158;2023-06-22T05:32:05;22.40;99.90
5675;DHT22;2860;54.284;10.158;2023-06-22T05:34:30;22.30;99.90
5675;DHT22;2860;54.284;10.158;2023-06-22T05:36:56;22.00;99.90
5675;DHT22;2860;54.284;10.158;2023-06-22T05:39:24;22.00;99.90
5675;DHT22;2860;54.284;10.158;2023-06-22T05:41:49;22.40;99.90
5675;DHT22;2860;54.284;10.158;2023-06-22T05:44:15;23.10;99.90
5675;DHT22;2860;54.284;10.158;2023-06-22T05:46:42;23.90;99.90
5675;DHT22;2860;54.284;10.158;2023-06-22T05:49:12;24.40;99.90
5675;DHT22;2860;54.284;10.158;2023-06-22T05:51:38;24.80;99.90
5675;DHT22;2860;54.284;10.158;2023-06-22T05:54:04;24.90;99.90
5675;DHT22;2860;54.284;10.158;2023-06-22T05:56:29;25.00;99.90
5675;DHT22;2860;54.284;10.158;2023-06-22T05:58:55;25.30;99.90
5675;DHT22;2860;54.284;10.158;2023-06-22T06:01:20;25.30;99.90
5675;DHT22;2860;54.284;10.158;2023-06-22T06:03:46;25.30;99.90
5675;DHT22;2860;54.284;10.158;2023-06-22T06:06:12;25.20;99.90
5675;DHT22;2860;54.284;10.158;2023-06-22T06:08:38;25.40;99.90
5675;DHT22;2860;54.284;10.158;2023-06-22T06:11:04;25.60;99.90
5675;DHT22;2860;54.284;10.158;2023-06-22T06:13:29;25.90;99.90
5675;DHT22;2860;54.284;10.158;2023-06-22T06:15:56;25.80;99.90
5675;DHT22;2860;54.284;10.158;2023-06-22T06:18:21;25.40;99.90
5675;DHT22;2860;54.284;10.158;2023-06-22T06:20:47;25.10;99.90
5675;DHT22;2860;54.284;10.158;2023-06-22T06:23:12;24.70;99.90
5675;DHT22;2860;54.284;10.158;2023-06-22T06:25:38;24.60;99.90
5675;DHT22;2860;54.284;10.158;2023-06-22T06:28:04;24.60;99.90
5675;DHT22;2860;54.284;10.158;2023-06-22T06:30:30;24.90;99.90
5675;DHT22;2860;54.284;10.158;2023-06-22T06:32:55;25.10;99.90
5675;DHT22;2860;54.284;10.158;2023-06-22T06:35:21;25.20;99.90
5675;DHT22;2860;54.284;10.158;2023-06-22T06:37:49;25.10;99.90
5675;DHT22;2860;54.284;10.158;2023-06-22T06:40:16;25.10;99.90
5675;DHT22;2860;54.284;10.158;2023-06-22T06:42:46;24.90;99.90
5675;DHT22;2860;54.284;10.158;2023-06-22T06:45:19;24.80;99.90
5675;DHT22;2860;54.284;10.158;2023-06-22T06:47:47;24.60;99.90
5675;DHT22;2860;54.284;10.158;2023-06-22T06:50:13;24.30;99.90
5675;DHT22;2860;54.284;10.158;2023-06-22T06:52:39;24.10;99.90
5675;DHT22;2860;54.284;10.158;2023-06-22T06:55:05;24.00;99.90
5675;DHT22;2860;54.284;10.158;2023-06-22T06:57:34;23.90;99.90
5675;DHT22;2860;54.284;10.158;2023-06-22T07:00:00;23.80;99.90
5675;DHT22;2860;54.284;10.158;2023-06-22T07:02:26;23.70;99.90
5675;DHT22;2860;54.284;10.158;2023-06-22T07:04:53;23.40;99.90
5675;DHT22;2860;54.284;10.158;2023-06-22T07:07:20;23.30;99.90
5675;DHT22;2860;54.284;10.158;2023-06-22T07:09:46;23.20;99.90
5675;DHT22;2860;54.284;10.158;2023-06-22T07:12:11;22.90;99.90
5675;DHT22;2860;54.284;10.158;2023-06-22T07:14:37;22.80;99.90
5675;DHT22;2860;54.284;10.158;2023-06-22T07:17:02;22.80;99.90
5675;DHT22;2860;54.284;10.158;2023-06-22T07:19:28;22.90;99.90
5675;DHT22;2860;54.284;10.158;2023-06-22T07:21:54;23.00;99.90
5675;DHT22;2860;54.284;10.158;2023-06-22T07:24:21;23.10;99.90
5675;DHT22;2860;54.284;10.158;2023-06-22T07:26:50;22.90;99.90
5675;DHT22;2860;54.284;10.158;2023-06-22T07:29:19;22.90;99.90
5675;DHT22;2860;54.284;10.158;2023-06-22T07:31:47;22.90;99.90
5675;DHT22;2860;54.284;10.158;2023-06-22T07:34:13;22.90;99.90
5675;DHT22;2860;54.284;10.158;2023-06-22T07:36:38;22.90;99.90
5675;DHT22;2860;54.284;10.158;2023-06-22T07:39:04;22.90;99.90
5675;DHT22;2860;54.284;10.158;2023-06-22T07:41:30;23.00;99.90
5675;DHT22;2860;54.284;10.158;2023-06-22T07:43:56;23.10;99.90
5675;DHT22;2860;54.284;10.158;2023-06-22T07:46:22;23.30;99.90
5675;DHT22;2860;54.284;10.158;2023-06-22T07:48:47;23.40;99.90
5675;DHT22;2860;54.284;10.158;2023-06-22T07:51:13;23.50;99.90
5675;DHT22;2860;54.284;10.158;2023-06-22T07:53:43;23.60;99.90
5675;DHT22;2860;54.284;10.158;2023-06-22T07:56:12;23.70;99.90
5675;DHT22;2860;54.284;10.158;2023-06-22T07:58:38;23.90;99.90
5675;DHT22;2860;54.284;10.158;2023-06-22T08:01:03;24.10;99.90
5675;DHT22;2860;54.284;10.158;2023-06-22T08:03:29;24.30;99.90
5675;DHT22;2860;54.284;10.158;2023-06-22T08:05:55;24.50;99.90
5675;DHT22;2860;54.284;10.158;2023-06-22T08:08:21;24.50;99.90
5675;DHT22;2860;54.284;10.158;2023-06-22T08:10:46;24.60;99.90
5675;DHT22;2860;54.284;10.158;2023-06-22T08:13:12;24.60;99.90
5675;DHT22;2860;54.284;10.158;2023-06-22T08:15:37;24.60;99.90
5675;DHT22;2860;54.284;10.158;2023-06-22T08:18:03;24.50;99.90
5675;DHT22;2860;54.284;10.158;2023-06-22T08:20:28;24.40;99.90
5675;DHT22;2860;54.284;10.158;2023-06-22T08:22:55;24.30;99.90
5675;DHT22;2860;54.284;10.158;2023-06-22T08:25:22;24.40;99.90
5675;DHT22;2860;54.284;10.158;2023-06-22T08:27:48;24.60;99.90
5675;DHT22;2860;54.284;10.158;2023-06-22T08:30:14;24.80;99.90
5675;DHT22;2860;54.284;10.158;2023-06-22T08:32:40;25.00;99.90
5675;DHT22;2860;54.284;10.158;2023-06-22T08:35:06;25.10;99.90
5675;DHT22;2860;54.284;10.158;2023-06-22T08:37:35;25.20;99.90
5675;DHT22;2860;54.284;10.158;2023-06-22T08:40:02;25.30;99.90
5675;DHT22;2860;54.284;10.158;2023-06-22T08:42:33;25.50;99.90
5675;DHT22;2860;54.284;10.158;2023-06-22T08:44:58;25.40;99.90
5675;DHT22;2860;54.284;10.158;2023-06-22T08:47:24;25.30;99.90
5675;DHT22;2860;54.284;10.158;2023-06-22T08:49:49;25.50;99.90
5675;DHT22;2860;54.284;10.158;2023-06-22T08:52:15;25.50;99.90
5675;DHT22;2860;54.284;10.158;2023-06-22T08:54:40;25.60;99.90
5675;DHT22;2860;54.284;10.158;2023-06-22T08:57:06;25.70;99.90
5675;DHT22;2860;54.284;10.158;2023-06-22T08:59:32;25.60;99.90
5675;DHT22;2860;54.284;10.158;2023-06-22T09:01:57;25.70;99.90
5675;DHT22;2860;54.284;10.158;2023-06-22T09:04:23;25.90;99.90
5675;DHT22;2860;54.284;10.158;2023-06-22T09:06:49;25.90;99.90
5675;DHT22;2860;54.284;10.158;2023-06-22T09:09:16;26.10;99.90
5675;DHT22;2860;54.284;10.158;2023-06-22T09:11:42;26.10;99.90
5675;DHT22;2860;54.284;10.158;2023-06-22T09:14:08;26.30;99.90
5675;DHT22;2860;54.284;10.158;2023-06-22T09:16:34;26.50;99.90
5675;DHT22;2860;54.284;10.158;2023-06-22T09:18:59;26.50;99.90
5675;DHT22;2860;54.284;10.158;2023-06-22T09:21:25;26.70;99.90
5675;DHT22;2860;54.284;10.158;2023-06-22T09:23:51;26.90;99.90
5675;DHT22;2860;54.284;10.158;2023-06-22T09:26:20;27.10;99.90
5675;DHT22;2860;54.284;10.158;2023-06-22T09:28:46;27.30;99.90
5675;DHT22;2860;54.284;10.158;2023-06-22T09:31:12;27.10;99.90
5675;DHT22;2860;54.284;10.158;2023-06-22T09:33:39;26.70;99.90
5675;DHT22;2860;54.284;10.158;2023-06-22T09:36:08;26.80;99.90
5675;DHT22;2860;54.284;10.158;2023-06-22T09:38:37;26.50;99.90
5675;DHT22;2860;54.284;10.158;2023-06-22T09:41:03;26.10;99.90
5675;DHT22;2860;54.284;10.158;2023-06-22T09:43:31;26.00;99.90
5675;DHT22;2860;54.284;10.158;2023-06-22T09:45:57;26.30;99.90
5675;DHT22;2860;54.284;10.158;2023-06-22T09:48:22;26.20;99.90
5675;DHT22;2860;54.284;10.158;2023-06-22T09:50:48;26.30;99.90
5675;DHT22;2860;54.284;10.158;2023-06-22T09:53:13;26.50;99.90
5675;DHT22;2860;54.284;10.158;2023-06-22T09:55:39;26.80;99.90
5675;DHT22;2860;54.284;10.158;2023-06-22T09:58:04;26.90;99.90
5675;DHT22;2860;54.284;10.158;2023-06-22T10:00:30;26.90;99.90
5675;DHT22;2860;54.284;10.158;2023-06-22T10:02:55;26.90;99.90
5675;DHT22;2860;54.284;10.158;2023-06-22T10:05:22;27.00;99.90
5675;DHT22;2860;54.284;10.158;2023-06-22T10:07:47;27.00;99.90
5675;DHT22;2860;54.284;10.158;2023-06-22T10:10:13;27.20;99.90
5675;DHT22;2860;54.284;10.158;2023-06-22T10:12:48;27.40;99.90
5675;DHT22;2860;54.284;10.158;2023-06-22T10:15:14;27.50;99.90
5675;DHT22;2860;54.284;10.158;2023-06-22T10:17:45;27.80;99.90
5675;DHT22;2860;54.284;10.158;2023-06-22T10:20:11;28.10;99.90
5675;DHT22;2860;54.284;10.158;2023-06-22T10:22:41;28.20;99.90
5675;DHT22;2860;54.284;10.158;2023-06-22T10:25:07;28.20;99.90
5675;DHT22;2860;54.284;10.158;2023-06-22T10:27:33;28.30;99.90
5675;DHT22;2860;54.284;10.158;2023-06-22T10:29:59;28.40;99.90
5675;DHT22;2860;54.284;10.158;2023-06-22T10:32:24;28.30;99.90
5675;DHT22;2860;54.284;10.158;2023-06-22T10:34:50;28.50;99.90
5675;DHT22;2860;54.284;10.158;2023-06-22T10:37:15;28.50;99.90
5675;DHT22;2860;54.284;10.158;2023-06-22T10:39:41;28.70;99.90
5675;DHT22;2860;54.284;10.158;2023-06-22T10:42:07;27.90;99.90
5675;DHT22;2860;54.284;10.158;2023-06-22T10:44:32;27.40;99.90
5675;DHT22;2860;54.284;10.158;2023-06-22T10:46:58;27.50;99.90
5675;DHT22;2860;54.284;10.158;2023-06-22T10:49:23;27.60;99.90
5675;DHT22;2860;54.284;10.158;2023-06-22T10:51:49;27.80;99.90
5675;DHT22;2860;54.284;10.158;2023-06-22T10:54:14;28.10;99.90
5675;DHT22;2860;54.284;10.158;2023-06-22T10:56:42;28.50;99.90
5675;DHT22;2860;54.284;10.158;2023-06-22T10:59:08;28.80;99.90
5675;DHT22;2860;54.284;10.158;2023-06-22T11:01:33;28.80;99.90
5675;DHT22;2860;54.284;10.158;2023-06-22T11:03:59;28.70;99.90
5675;DHT22;2860;54.284;10.158;2023-06-22T11:06:24;28.50;99.90
5675;DHT22;2860;54.284;10.158;2023-06-22T11:08:50;28.10;99.90
5675;DHT22;2860;54.284;10.158;2023-06-22T11:11:15;27.80;99.90
5675;DHT22;2860;54.284;10.158;2023-06-22T11:13:43;27.70;99.90
5675;DHT22;2860;54.284;10.158;2023-06-22T11:16:09;27.80;99.90
5675;DHT22;2860;54.284;10.158;2023-06-22T11:18:35;28.00;99.90
5675;DHT22;2860;54.284;10.158;2023-06-22T11:21:00;28.00;99.90
5675;DHT22;2860;54.284;10.158;2023-06-22T11:23:26;28.20;99.90
5675;DHT22;2860;54.284;10.158;2023-06-22T11:25:53;28.40;99.90
5675;DHT22;2860;54.284;10.158;2023-06-22T11:28:19;28.30;99.90
5675;DHT22;2860;54.284;10.158;2023-06-22T11:30:44;28.20;99.90
5675;DHT22;2860;54.284;10.158;2023-06-22T11:33:10;28.00;99.90
5675;DHT22;2860;54.284;10.158;2023-06-22T11:35:35;28.20;99.90
5675;DHT22;2860;54.284;10.158;2023-06-22T11:38:01;28.50;99.90
5675;DHT22;2860;54.284;10.158;2023-06-22T11:40:28;28.70;99.90
5675;DHT22;2860;54.284;10.158;2023-06-22T11:42:54;28.70;99.90
5675;DHT22;2860;54.284;10.158;2023-06-22T11:45:19;28.90;99.90
5675;DHT22;2860;54.284;10.158;2023-06-22T11:47:45;29.30;99.90
5675;DHT22;2860;54.284;10.158;2023-06-22T11:50:11;29.60;99.90
5675;DHT22;2860;54.284;10.158;2023-06-22T11:52:36;29.70;99.90
5675;DHT22;2860;54.284;10.158;2023-06-22T11:55:02;29.80;99.90
5675;DHT22;2860;54.284;10.158;2023-06-22T11:57:32;29.90;99.90
5675;DHT22;2860;54.284;10.158;2023-06-22T11:59:58;29.90;99.90
5675;DHT22;2860;54.284;10.158;2023-06-22T12:02:23;29.90;99.90
5675;DHT22;2860;54.284;10.158;2023-06-22T12:04:49;29.80;99.90
5675;DHT22;2860;54.284;10.158;2023-06-22T12:07:17;29.80;99.90
5675;DHT22;2860;54.284;10.158;2023-06-22T12:09:43;29.80;99.90
5675;DHT22;2860;54.284;10.158;2023-06-22T12:12:09;29.80;99.90
5675;DHT22;2860;54.284;10.158;2023-06-22T12:14:35;29.90;99.90
5675;DHT22;2860;54.284;10.158;2023-06-22T12:17:00;29.90;99.90
5675;DHT22;2860;54.284;10.158;2023-06-22T12:19:26;29.40;99.90
5675;DHT22;2860;54.284;10.158;2023-06-22T12:21:51;28.90;99.90
5675;DHT22;2860;54.284;10.158;2023-06-22T12:24:17;28.60;99.90
5675;DHT22;2860;54.284;10.158;2023-06-22T12:26:42;28.40;99.90
5675;DHT22;2860;54.284;10.158;2023-06-22T12:29:08;28.60;99.90
5675;DHT22;2860;54.284;10.158;2023-06-22T12:31:35;28.70;99.90
5675;DHT22;2860;54.284;10.158;2023-06-22T12:34:00;28.80;99.90
5675;DHT22;2860;54.284;10.158;2023-06-22T12:36:26;28.80;99.90
5675;DHT22;2860;54.284;10.158;2023-06-22T12:38:51;28.80;99.90
5675;DHT22;2860;54.284;10.158;2023-06-22T12:41:17;28.80;99.90
5675;DHT22;2860;54.284;10.158;2023-06-22T12:43:42;28.90;99.90
5675;DHT22;2860;54.284;10.158;2023-06-22T12:46:08;28.80;99.90
5675;DHT22;2860;54.284;10.158;2023-06-22T12:48:33;28.60;99.90
5675;DHT22;2860;54.284;10.158;2023-06-22T12:50:59;28.40;99.90
5675;DHT22;2860;54.284;10.158;2023-06-22T12:53:25;28.20;99.90
5675;DHT22;2860;54.284;10.158;2023-06-22T12:55:52;28.00;99.90
5675;DHT22;2860;54.284;10.158;2023-06-22T12:58:18;27.90;99.90
5675;DHT22;2860;54.284;10.158;2023-06-22T13:00:43;27.90;99.90
5675;DHT22;2860;54.284;10.158;2023-06-22T13:03:09;27.80;99.90
5675;DHT22;2860;54.284;10.158;2023-06-22T13:05:34;27.70;99.90
5675;DHT22;2860;54.284;10.158;2023-06-22T13:08:01;27.50;99.90
5675;DHT22;2860;54.284;10.158;2023-06-22T13:10:27;27.50;99.90
5675;DHT22;2860;54.284;10.158;2023-06-22T13:12:52;27.40;99.90
5675;DHT22;2860;54.284;10.158;2023-06-22T13:15:26;27.20;99.90
5675;DHT22;2860;54.284;10.158;2023-06-22T13:17:51;27.00;99.90
5675;DHT22;2860;54.284;10.158;2023-06-22T13:20:17;26.90;99.90
5675;DHT22;2860;54.284;10.158;2023-06-22T13:22:43;26.90;99.90
5675;DHT22;2860;54.284;10.158;2023-06-22T13:25:09;26.90;99.90
5675;DHT22;2860;54.284;10.158;2023-06-22T13:27:41;27.00;99.90
5675;DHT22;2860;54.284;10.158;2023-06-22T13:30:08;27.10;99.90
5675;DHT22;2860;54.284;10.158;2023-06-22T13:32:34;27.30;99.90
5675;DHT22;2860;54.284;10.158;2023-06-22T13:34:59;27.50;99.90
5675;DHT22;2860;54.284;10.158;2023-06-22T13:37:25;27.60;99.90
5675;DHT22;2860;54.284;10.158;2023-06-22T13:39:51;27.60;99.90
5675;DHT22;2860;54.284;10.158;2023-06-22T13:42:17;27.70;99.90
5675;DHT22;2860;54.284;10.158;2023-06-22T13:44:42;27.70;99.90
5675;DHT22;2860;54.284;10.158;2023-06-22T13:47:08;27.80;99.90
5675;DHT22;2860;54.284;10.158;2023-06-22T13:49:34;27.80;99.90
5675;DHT22;2860;54.284;10.158;2023-06-22T13:51:59;27.80;99.90
5675;DHT22;2860;54.284;10.158;2023-06-22T13:54:25;27.80;99.90
5675;DHT22;2860;54.284;10.158;2023-06-22T13:56:50;27.80;99.90
5675;DHT22;2860;54.284;10.158;2023-06-22T13:59:16;27.80;99.90
5675;DHT22;2860;54.284;10.158;2023-06-22T14:01:42;28.00;99.90
5675;DHT22;2860;54.284;10.158;2023-06-22T14:04:08;27.90;99.90
5675;DHT22;2860;54.284;10.158;2023-06-22T14:06:34;27.80;99.90
5675;DHT22;2860;54.284;10.158;2023-06-22T14:08:59;27.70;99.90
5675;DHT22;2860;54.284;10.158;2023-06-22T14:11:25;27.70;99.90
5675;DHT22;2860;54.284;10.158;2023-06-22T14:13:51;27.80;99.90
5675;DHT22;2860;54.284;10.158;2023-06-22T14:16:17;27.70;99.90
5675;DHT22;2860;54.284;10.158;2023-06-22T14:18:42;27.80;99.90
5675;DHT22;2860;54.284;10.158;2023-06-22T14:21:08;27.90;99.90
5675;DHT22;2860;54.284;10.158;2023-06-22T14:23:33;28.00;99.90
5675;DHT22;2860;54.284;10.158;2023-06-22T14:25:59;28.00;99.90
5675;DHT22;2860;54.284;10.158;2023-06-22T14:28:25;27.80;99.90
5675;DHT22;2860;54.284;10.158;2023-06-22T14:30:50;27.80;99.90
5675;DHT22;2860;54.284;10.158;2023-06-22T14:33:16;27.80;99.90
5675;DHT22;2860;54.284;10.158;2023-06-22T14:35:41;27.70;99.90
5675;DHT22;2860;54.284;10.158;2023-06-22T14:38:07;27.60;99.90
5675;DHT22;2860;54.284;10.158;2023-06-22T14:40:32;27.40;99.90
5675;DHT22;2860;54.284;10.158;2023-06-22T14:42:58;27.10;99.90
5675;DHT22;2860;54.284;10.158;2023-06-22T14:45:24;26.80;99.90
5675;DHT22;2860;54.284;10.158;2023-06-22T14:47:49;26.70;99.90
5675;DHT22;2860;54.284;10.158;2023-06-22T14:50:15;26.50;99.90
5675;DHT22;2860;54.284;10.158;2023-06-22T14:52:41;26.50;99.90
5675;DHT22;2860;54.284;10.158;2023-06-22T14:55:07;26.50;99.90
5675;DHT22;2860;54.284;10.158;2023-06-22T14:57:32;26.50;99.90
5675;DHT22;2860;54.284;10.158;2023-06-22T14:59:58;26.60;99.90
5675;DHT22;2860;54.284;10.158;2023-06-22T15:02:23;26.60;99.90
5675;DHT22;2860;54.284;10.158;2023-06-22T15:04:49;26.50;99.90
5675;DHT22;2860;54.284;10.158;2023-06-22T15:07:14;26.40;99.90
5675;DHT22;2860;54.284;10.158;2023-06-22T15:09:40;26.20;99.90
5675;DHT22;2860;54.284;10.158;2023-06-22T15:12:08;26.00;99.90
5675;DHT22;2860;54.284;10.158;2023-06-22T15:14:38;26.00;99.90
5675;DHT22;2860;54.284;10.158;2023-06-22T15:17:04;26.00;99.90
5675;DHT22;2860;54.284;10.158;2023-06-22T15:19:29;26.10;99.90
5675;DHT22;2860;54.284;10.158;2023-06-22T15:21:55;26.30;99.90
5675;DHT22;2860;54.284;10.158;2023-06-22T15:24:20;26.60;99.90
5675;DHT22;2860;54.284;10.158;2023-06-22T15:26:46;26.90;99.90
5675;DHT22;2860;54.284;10.158;2023-06-22T15:29:11;26.90;99.90
5675;DHT22;2860;54.284;10.158;2023-06-22T15:31:37;26.60;99.90
5675;DHT22;2860;54.284;10.158;2023-06-22T15:34:02;26.30;99.90
5675;DHT22;2860;54.284;10.158;2023-06-22T15:36:29;26.00;99.90
5675;DHT22;2860;54.284;10.158;2023-06-22T15:38:54;25.90;99.90
5675;DHT22;2860;54.284;10.158;2023-06-22T15:41:20;25.50;99.90
5675;DHT22;2860;54.284;10.158;2023-06-22T15:43:45;25.30;99.90